Time;durP1;ratioP1;P1;durP2;ratioP2;P2;SDS_P1;SDS_P2;PMS_P1;PMS_P2;Temp;Humidity;BMP_temperature;BMP_pressure;BME280_temperature;BME280_humidity;BME280_pressure;Samples;Min_cycle;Max_cycle;Signal;HPM_P1;HPM_P2
2021/10/07 00:01:54;;;;;;;9.60;5.93;;;;;;;;;;4914999;29;20067;-63
2021/10/07 00:04:20;;;;;;;11.90;5.07;;;;;;;;;;4914745;29;20508;-62
2021/10/07 00:06:46;;;;;;;8.68;5.25;;;;;;;;;;4914313;29;20160;-63
2021/10/07 00:09:12;;;;;;;14.68;6.50;;;;;;;;;;4914725;29;20071;-63
2021/10/07 00:11:39;;;;;;;9.82;5.65;;;;;;;;;;4914665;29;20088;-63
2021/10/07 00:14:06;;;;;;;25.27;6.15;;;;;;;;;;4914680;29;20032;-63
2021/10/07 00:16:32;;;;;;;18.65;6.05;;;;;;;;;;4914413;29;20032;-63
2021/10/07 00:18:58;;;;;;;12.93;5.15;;;;;;;;;;4914166;29;20040;-62
2021/10/07 00:21:24;;;;;;;11.30;5.25;;;;;;;;;;4914699;29;20103;-63
2021/10/07 00:24:09;;;;;;;11.85;5.53;;;;;;;;;;4914789;29;20533;-63
2021/10/07 00:26:35;;;;;;;14.10;5.90;;;;;;;;;;4914406;29;20111;-65
2021/10/07 00:29:11;;;;;;;12.95;5.50;;;;;;;;;;4914332;29;20052;-63
2021/10/07 00:31:39;;;;;;;10.82;5.72;;;;;;;;;;4915616;29;20044;-63
2021/10/07 00:34:18;;;;;;;12.85;5.53;;;;;;;;;;4918387;29;20032;-63
2021/10/07 00:39:13;;;;;;;14.52;5.65;;;;;;;;;;4918622;29;20040;-63
2021/10/07 00:41:40;;;;;;;11.85;5.25;;;;;;;;;;4918149;29;20020;-62
2021/10/07 00:44:07;;;;;;;12.98;5.28;;;;;;;;;;4918407;29;20036;-62
2021/10/07 00:46:54;;;;;;;18.15;6.65;;;;;;;;;;4918490;29;20061;-62
2021/10/07 00:49:21;;;;;;;11.90;5.13;;;;;;;;;;4918020;29;20048;-62
2021/10/07 00:51:47;;;;;;;17.75;5.55;;;;;;;;;;4918345;29;20478;-62
2021/10/07 00:54:14;;;;;;;13.95;5.30;;;;;;;;;;4917789;29;20345;-63
2021/10/07 00:56:41;;;;;;;15.13;5.53;;;;;;;;;;4918286;29;20143;-62
2021/10/07 00:59:07;;;;;;;12.15;5.32;;;;;;;;;;4918136;29;20432;-63
2021/10/07 01:01:34;;;;;;;14.40;5.00;;;;;;;;;;4918151;29;20032;-62
2021/10/07 01:04:00;;;;;;;11.45;5.25;;;;;;;;;;4917188;29;20036;-62
2021/10/07 01:06:26;;;;;;;10.60;4.35;;;;;;;;;;4917873;29;20432;-62
2021/10/07 01:08:52;;;;;;;9.98;4.50;;;;;;;;;;4917742;29;20044;-62
2021/10/07 01:11:18;;;;;;;8.93;4.55;;;;;;;;;;4917920;29;20032;-63
2021/10/07 01:13:44;;;;;;;9.80;4.53;;;;;;;;;;4917489;29;20028;-63
2021/10/07 01:16:10;;;;;;;13.35;4.47;;;;;;;;;;4917749;29;20032;-62
2021/10/07 01:18:36;;;;;;;11.25;4.97;;;;;;;;;;4917475;29;20571;-63
2021/10/07 01:21:03;;;;;;;8.30;3.80;;;;;;;;;;4900752;29;20036;-62
2021/10/07 01:23:29;;;;;;;9.77;3.70;;;;;;;;;;4917240;29;20520;-62
2021/10/07 01:25:55;;;;;;;10.73;3.50;;;;;;;;;;4917548;29;20453;-62
2021/10/07 01:28:21;;;;;;;11.63;4.38;;;;;;;;;;4917723;29;20047;-62
2021/10/07 01:30:48;;;;;;;12.82;3.95;;;;;;;;;;4917346;29;20071;-62
2021/10/07 01:33:14;;;;;;;12.07;4.10;;;;;;;;;;4917579;29;20031;-62
2021/10/07 01:35:40;;;;;;;9.57;4.00;;;;;;;;;;4917232;29;20107;-64
2021/10/07 01:38:06;;;;;;;12.82;4.00;;;;;;;;;;4917421;29;20028;-64
2021/10/07 01:40:32;;;;;;;14.18;4.07;;;;;;;;;;4917477;29;20040;-62
2021/10/07 01:42:58;;;;;;;10.80;4.30;;;;;;;;;;4916079;29;20033;-63
2021/10/07 01:45:24;;;;;;;6.60;4.07;;;;;;;;;;4917423;29;20036;-64
2021/10/07 01:47:50;;;;;;;11.48;4.70;;;;;;;;;;4917029;29;20039;-62
2021/10/07 01:50:16;;;;;;;15.63;4.35;;;;;;;;;;4916961;29;20127;-61
2021/10/07 01:52:43;;;;;;;12.30;5.00;;;;;;;;;;4917027;29;20134;-63
2021/10/07 01:55:09;;;;;;;13.00;4.85;;;;;;;;;;4916799;29;20028;-63
2021/10/07 01:57:36;;;;;;;14.40;5.50;;;;;;;;;;4917170;29;20051;-62
2021/10/07 02:00:02;;;;;;;13.27;5.85;;;;;;;;;;4917034;29;20381;-63
2021/10/07 02:02:28;;;;;;;13.75;6.22;;;;;;;;;;4918386;29;20099;-63
2021/10/07 02:04:54;;;;;;;19.88;6.15;;;;;;;;;;4918668;29;20037;-63
2021/10/07 02:07:20;;;;;;;14.05;6.18;;;;;;;;;;4917022;29;20032;-63
2021/10/07 02:09:47;;;;;;;20.35;7.05;;;;;;;;;;4916791;29;20118;-63
2021/10/07 02:12:13;;;;;;;13.07;5.60;;;;;;;;;;4916864;29;20028;-63
2021/10/07 02:14:39;;;;;;;11.80;5.95;;;;;;;;;;4916381;29;20051;-63
2021/10/07 02:17:05;;;;;;;14.60;6.00;;;;;;;;;;4916315;29;20056;-63
2021/10/07 02:19:31;;;;;;;16.17;5.90;;;;;;;;;;4916422;29;20040;-63
2021/10/07 02:21:57;;;;;;;11.65;6.10;;;;;;;;;;4916379;29;20029;-63
2021/10/07 02:24:23;;;;;;;12.00;5.78;;;;;;;;;;4916553;29;20036;-63
2021/10/07 02:26:49;;;;;;;15.80;6.60;;;;;;;;;;4916351;29;20033;-63
2021/10/07 02:29:15;;;;;;;12.52;5.60;;;;;;;;;;4916433;29;20088;-63
2021/10/07 02:31:41;;;;;;;13.13;6.00;;;;;;;;;;4916508;29;20028;-63
2021/10/07 02:34:07;;;;;;;11.23;4.50;;;;;;;;;;4916090;29;20079;-63
2021/10/07 02:36:33;;;;;;;15.15;5.30;;;;;;;;;;4916134;29;20020;-62
2021/10/07 02:39:00;;;;;;;11.50;5.07;;;;;;;;;;4916222;29;20075;-63
2021/10/07 02:41:26;;;;;;;11.57;5.60;;;;;;;;;;4916292;29;20024;-63
2021/10/07 02:43:52;;;;;;;13.32;5.32;;;;;;;;;;4916289;29;20028;-63
2021/10/07 02:46:19;;;;;;;10.27;5.70;;;;;;;;;;4916030;29;20057;-63
2021/10/07 02:48:45;;;;;;;13.70;5.68;;;;;;;;;;4916064;29;20511;-62
2021/10/07 02:51:11;;;;;;;11.07;5.00;;;;;;;;;;4915563;29;20440;-62
2021/10/07 02:53:41;;;;;;;11.80;4.80;;;;;;;;;;4915860;29;20083;-63
2021/10/07 02:56:07;;;;;;;21.02;5.22;;;;;;;;;;4915689;29;20040;-62
2021/10/07 02:58:34;;;;;;;11.20;5.40;;;;;;;;;;4898884;29;20028;-61
2021/10/07 03:01:00;;;;;;;16.75;5.35;;;;;;;;;;4915946;29;20064;-62
2021/10/07 03:03:26;;;;;;;14.23;5.25;;;;;;;;;;4915514;29;20024;-62
2021/10/07 03:05:52;;;;;;;13.88;5.40;;;;;;;;;;4916034;29;20032;-63
2021/10/07 03:08:18;;;;;;;13.48;5.28;;;;;;;;;;4915469;29;20500;-62
2021/10/07 03:10:44;;;;;;;15.35;5.50;;;;;;;;;;4915744;29;20503;-62
2021/10/07 03:13:10;;;;;;;13.88;4.88;;;;;;;;;;4915389;29;20035;-62
2021/10/07 03:15:36;;;;;;;14.23;5.80;;;;;;;;;;4915344;29;20064;-62
2021/10/07 03:18:03;;;;;;;13.52;5.80;;;;;;;;;;4915304;29;20504;-62
2021/10/07 03:20:29;;;;;;;11.32;5.13;;;;;;;;;;4915315;29;20040;-62
2021/10/07 03:22:55;;;;;;;14.75;5.05;;;;;;;;;;4897718;29;20437;-62
2021/10/07 03:25:21;;;;;;;18.02;5.68;;;;;;;;;;4915508;29;20366;-62
2021/10/07 03:27:47;;;;;;;9.48;4.78;;;;;;;;;;4915083;29;20020;-62
2021/10/07 03:30:13;;;;;;;10.65;5.13;;;;;;;;;;4915334;29;20048;-62
2021/10/07 03:32:39;;;;;;;15.68;5.30;;;;;;;;;;4897599;29;20100;-63
2021/10/07 03:35:05;;;;;;;14.55;4.90;;;;;;;;;;4915013;29;20040;-62
2021/10/07 03:37:32;;;;;;;14.52;5.75;;;;;;;;;;4914893;29;20063;-62
2021/10/07 03:39:58;;;;;;;15.13;5.72;;;;;;;;;;4914865;29;20035;-62
2021/10/07 03:42:24;;;;;;;8.95;5.45;;;;;;;;;;4915008;29;20469;-62
2021/10/07 03:44:50;;;;;;;17.17;6.28;;;;;;;;;;4915075;29;20540;-62
2021/10/07 03:47:16;;;;;;;14.10;5.35;;;;;;;;;;4915158;29;20039;-62
2021/10/07 03:49:42;;;;;;;12.60;5.28;;;;;;;;;;4915083;29;20044;-62
2021/10/07 03:52:08;;;;;;;8.40;5.32;;;;;;;;;;4914578;29;20088;-62
2021/10/07 03:54:34;;;;;;;11.70;5.45;;;;;;;;;;4914769;29;20070;-62
2021/10/07 03:57:00;;;;;;;15.95;5.72;;;;;;;;;;4914923;29;20029;-62
2021/10/07 03:59:26;;;;;;;10.48;5.63;;;;;;;;;;4914987;29;20107;-62
2021/10/07 04:01:52;;;;;;;11.63;5.40;;;;;;;;;;4914675;29;20504;-62
2021/10/07 04:04:18;;;;;;;16.95;5.05;;;;;;;;;;4914675;29;20094;-62
2021/10/07 04:06:44;;;;;;;13.45;4.95;;;;;;;;;;4914493;29;20032;-63
2021/10/07 04:09:10;;;;;;;17.02;5.75;;;;;;;;;;4914444;29;20036;-62
2021/10/07 04:11:36;;;;;;;11.82;5.50;;;;;;;;;;4914751;29;20063;-62
2021/10/07 04:14:02;;;;;;;9.63;5.32;;;;;;;;;;4914487;29;20036;-62
2021/10/07 04:16:28;;;;;;;20.33;5.53;;;;;;;;;;4914514;29;20035;-64
2021/10/07 04:18:55;;;;;;;12.50;6.10;;;;;;;;;;4914350;29;20044;-63
2021/10/07 04:21:23;;;;;;;14.70;5.78;;;;;;;;;;4914501;29;20392;-63
2021/10/07 04:23:49;;;;;;;7.93;5.20;;;;;;;;;;4914093;29;20027;-62
2021/10/07 04:26:15;;;;;;;16.13;6.00;;;;;;;;;;4914726;29;20028;-62
2021/10/07 04:28:41;;;;;;;12.07;5.75;;;;;;;;;;4914503;29;20456;-62
2021/10/07 04:31:07;;;;;;;12.68;5.13;;;;;;;;;;4914590;29;20036;-62
2021/10/07 04:33:33;;;;;;;12.38;5.88;;;;;;;;;;4914478;29;20358;-62
2021/10/07 04:35:59;;;;;;;11.98;6.05;;;;;;;;;;4914476;29;20360;-62
2021/10/07 04:38:25;;;;;;;15.00;5.55;;;;;;;;;;4914535;29;20080;-62
2021/10/07 04:40:51;;;;;;;11.68;5.63;;;;;;;;;;4914514;29;20035;-64
2021/10/07 04:43:18;;;;;;;13.52;5.13;;;;;;;;;;4914524;29;20107;-63
2021/10/07 04:45:44;;;;;;;12.23;5.25;;;;;;;;;;4914775;29;20031;-63
2021/10/07 04:48:12;;;;;;;10.60;5.50;;;;;;;;;;4913900;29;20504;-63
2021/10/07 04:50:38;;;;;;;9.90;5.57;;;;;;;;;;4914228;29;20036;-64
2021/10/07 04:53:04;;;;;;;12.52;5.65;;;;;;;;;;4914708;29;20376;-63
2021/10/07 04:55:30;;;;;;;17.40;5.70;;;;;;;;;;4913850;29;20492;-64
2021/10/07 04:57:56;;;;;;;14.77;6.13;;;;;;;;;;4914073;29;20065;-63
2021/10/07 05:00:22;;;;;;;14.48;5.75;;;;;;;;;;4913744;29;20036;-63
2021/10/07 05:02:48;;;;;;;14.80;6.00;;;;;;;;;;4913912;29;20024;-63
2021/10/07 05:05:15;;;;;;;21.25;7.18;;;;;;;;;;4894511;29;20028;-64
2021/10/07 05:07:43;;;;;;;16.05;5.90;;;;;;;;;;4914487;29;20111;-63
2021/10/07 05:10:09;;;;;;;13.43;6.10;;;;;;;;;;4914222;29;20048;-62
2021/10/07 05:12:36;;;;;;;11.60;6.15;;;;;;;;;;4914275;29;20031;-63
2021/10/07 05:15:02;;;;;;;14.73;6.18;;;;;;;;;;4913776;29;20040;-63
2021/10/07 05:17:28;;;;;;;10.40;6.47;;;;;;;;;;4913486;29;20130;-65
2021/10/07 05:19:54;;;;;;;13.50;6.82;;;;;;;;;;4916293;29;21144;-64
2021/10/07 05:22:20;;;;;;;14.38;6.60;;;;;;;;;;4913733;29;20040;-64
2021/10/07 05:24:46;;;;;;;11.95;6.18;;;;;;;;;;4913751;29;20040;-64
2021/10/07 05:27:13;;;;;;;8.48;6.45;;;;;;;;;;4915972;29;20035;-63
2021/10/07 05:29:39;;;;;;;16.55;6.20;;;;;;;;;;4916349;29;20090;-65
2021/10/07 05:32:05;;;;;;;12.77;5.90;;;;;;;;;;4915759;29;20539;-63
2021/10/07 05:34:31;;;;;;;10.35;5.97;;;;;;;;;;4918424;29;20111;-64
2021/10/07 05:36:57;;;;;;;13.32;6.50;;;;;;;;;;4917458;29;20028;-62
2021/10/07 05:39:23;;;;;;;19.25;6.30;;;;;;;;;;4917153;29;20055;-63
2021/10/07 05:41:49;;;;;;;12.45;6.65;;;;;;;;;;4916229;29;20047;-64
2021/10/07 05:44:15;;;;;;;14.05;6.60;;;;;;;;;;4915619;29;20024;-62
2021/10/07 05:46:42;;;;;;;15.02;7.13;;;;;;;;;;4915918;29;20044;-62
2021/10/07 05:49:09;;;;;;;15.20;7.03;;;;;;;;;;4915771;29;20044;-63
2021/10/07 05:51:35;;;;;;;17.25;7.55;;;;;;;;;;4915035;29;20095;-63
2021/10/07 05:54:01;;;;;;;15.68;6.85;;;;;;;;;;4916989;29;20059;-63
2021/10/07 05:56:28;;;;;;;17.77;7.78;;;;;;;;;;4916884;29;20097;-62
2021/10/07 05:58:54;;;;;;;16.58;7.22;;;;;;;;;;4917489;29;20035;-63
2021/10/07 06:01:20;;;;;;;16.80;7.00;;;;;;;;;;4917213;29;20084;-62
2021/10/07 06:03:46;;;;;;;15.85;6.72;;;;;;;;;;4916033;29;20032;-63
2021/10/07 06:06:12;;;;;;;10.80;7.38;;;;;;;;;;4916590;29;20823;-63
2021/10/07 06:08:38;;;;;;;14.77;8.13;;;;;;;;;;4915346;29;20122;-63
2021/10/07 06:11:05;;;;;;;15.43;7.40;;;;;;;;;;4915586;29;20056;-63
2021/10/07 06:13:31;;;;;;;14.15;7.32;;;;;;;;;;4900356;29;20024;-63
2021/10/07 06:15:57;;;;;;;15.35;7.72;;;;;;;;;;4916102;29;20032;-64
2021/10/07 06:18:24;;;;;;;20.20;8.05;;;;;;;;;;4916159;29;20051;-64
2021/10/07 06:20:50;;;;;;;12.85;7.35;;;;;;;;;;4915434;29;20036;-65
2021/10/07 06:23:16;;;;;;;19.50;7.72;;;;;;;;;;4914326;29;20032;-62
2021/10/07 06:25:42;;;;;;;18.50;7.70;;;;;;;;;;4913213;29;20036;-61
2021/10/07 06:28:09;;;;;;;17.73;8.02;;;;;;;;;;4909225;29;20135;-64
2021/10/07 06:30:35;;;;;;;15.98;7.85;;;;;;;;;;4914264;29;21016;-63
2021/10/07 06:33:01;;;;;;;14.35;7.72;;;;;;;;;;4915005;29;20056;-64
2021/10/07 06:35:28;;;;;;;15.43;7.72;;;;;;;;;;4914900;29;20028;-64
2021/10/07 06:37:54;;;;;;;15.13;7.63;;;;;;;;;;4915098;29;20467;-63
2021/10/07 06:40:20;;;;;;;17.33;7.10;;;;;;;;;;4896690;29;20103;-64
2021/10/07 06:42:46;;;;;;;15.07;7.47;;;;;;;;;;4914764;29;20028;-64
2021/10/07 06:45:13;;;;;;;12.60;7.28;;;;;;;;;;4914447;29;20036;-64
2021/10/07 06:47:39;;;;;;;15.77;8.02;;;;;;;;;;4906405;29;20031;-63
2021/10/07 06:50:07;;;;;;;18.45;7.10;;;;;;;;;;4896824;29;20127;-63
2021/10/07 06:52:33;;;;;;;18.17;8.10;;;;;;;;;;4897540;29;20037;-63
2021/10/07 06:55:00;;;;;;;14.02;7.40;;;;;;;;;;4897830;29;20025;-63
2021/10/07 06:57:26;;;;;;;19.30;7.65;;;;;;;;;;4897980;29;20125;-63
2021/10/07 06:59:52;;;;;;;17.80;7.15;;;;;;;;;;4899583;29;20143;-63
2021/10/07 07:02:18;;;;;;;19.90;7.85;;;;;;;;;;4914092;29;20032;-64
2021/10/07 07:04:44;;;;;;;13.57;7.88;;;;;;;;;;4914633;29;20486;-63
2021/10/07 07:07:11;;;;;;;13.55;6.82;;;;;;;;;;4915308;29;20024;-63
2021/10/07 07:09:37;;;;;;;14.88;6.75;;;;;;;;;;4914513;29;20047;-62
2021/10/07 07:12:03;;;;;;;15.45;7.50;;;;;;;;;;4914012;29;20487;-62
2021/10/07 07:14:29;;;;;;;20.67;7.03;;;;;;;;;;4914598;29;20036;-63
2021/10/07 07:16:55;;;;;;;17.02;7.22;;;;;;;;;;4914707;29;20040;-62
2021/10/07 07:19:21;;;;;;;15.18;6.85;;;;;;;;;;4915232;29;20032;-63
2021/10/07 07:21:47;;;;;;;13.95;6.63;;;;;;;;;;4914222;29;20031;-63
2021/10/07 07:24:13;;;;;;;14.05;6.85;;;;;;;;;;4914912;29;20053;-63
2021/10/07 07:26:39;;;;;;;19.10;6.30;;;;;;;;;;4914725;29;20036;-63
2021/10/07 07:29:06;;;;;;;16.25;6.28;;;;;;;;;;4914912;29;20471;-63
2021/10/07 07:31:32;;;;;;;15.30;6.88;;;;;;;;;;4915153;29;20028;-63
2021/10/07 07:33:59;;;;;;;12.07;5.85;;;;;;;;;;4915115;29;20040;-64
2021/10/07 07:36:25;;;;;;;16.45;6.07;;;;;;;;;;4915418;29;20020;-63
2021/10/07 07:38:52;;;;;;;15.13;6.50;;;;;;;;;;4915093;29;20108;-62
2021/10/07 07:41:18;;;;;;;14.40;6.40;;;;;;;;;;4914904;29;20440;-62
2021/10/07 07:43:45;;;;;;;17.10;5.25;;;;;;;;;;4914984;29;20040;-63
2021/10/07 07:46:12;;;;;;;15.18;5.93;;;;;;;;;;4914667;29;20110;-64
2021/10/07 07:48:38;;;;;;;18.77;6.22;;;;;;;;;;4914408;29;20032;-64
2021/10/07 07:51:04;;;;;;;15.75;6.20;;;;;;;;;;4914124;29;20370;-63
2021/10/07 07:53:30;;;;;;;16.35;5.85;;;;;;;;;;4914596;29;20099;-64
2021/10/07 07:55:57;;;;;;;13.30;5.53;;;;;;;;;;4914529;29;20024;-63
2021/10/07 07:58:23;;;;;;;17.33;5.43;;;;;;;;;;4914605;29;20038;-63
2021/10/07 08:00:50;;;;;;;16.38;5.57;;;;;;;;;;4914042;29;20381;-63
2021/10/07 08:03:16;;;;;;;17.70;5.70;;;;;;;;;;4913559;29;20028;-64
2021/10/07 08:05:42;;;;;;;23.13;5.85;;;;;;;;;;4913804;29;20028;-64
2021/10/07 08:08:08;;;;;;;11.23;5.43;;;;;;;;;;4914045;29;20028;-63
2021/10/07 08:10:35;;;;;;;12.77;5.47;;;;;;;;;;4913663;29;20040;-65
2021/10/07 08:13:01;;;;;;;12.02;6.32;;;;;;;;;;4914394;29;20024;-64
2021/10/07 08:15:28;;;;;;;14.35;6.13;;;;;;;;;;4903886;29;20036;-63
2021/10/07 08:17:54;;;;;;;15.02;5.72;;;;;;;;;;4900731;29;20048;-62
2021/10/07 08:20:20;;;;;;;16.10;5.90;;;;;;;;;;4907789;29;20078;-65
2021/10/07 08:22:48;;;;;;;20.10;7.40;;;;;;;;;;4912695;29;20028;-61
2021/10/07 08:25:14;;;;;;;14.25;5.63;;;;;;;;;;4913162;29;20826;-62
2021/10/07 08:27:40;;;;;;;20.13;6.47;;;;;;;;;;4910403;29;20036;-63
2021/10/07 08:30:08;;;;;;;16.08;5.82;;;;;;;;;;4912641;29;20527;-64
2021/10/07 08:32:34;;;;;;;13.10;6.25;;;;;;;;;;4910448;29;20036;-61
2021/10/07 08:35:00;;;;;;;17.42;6.82;;;;;;;;;;4910942;29;20511;-61
2021/10/07 08:37:27;;;;;;;18.98;6.50;;;;;;;;;;4912661;29;20055;-61
2021/10/07 08:39:53;;;;;;;16.08;5.97;;;;;;;;;;4912462;29;20021;-62
2021/10/07 08:42:19;;;;;;;19.13;6.00;;;;;;;;;;4912424;29;20028;-63
2021/10/07 08:44:46;;;;;;;17.70;6.15;;;;;;;;;;4912224;29;20035;-62
2021/10/07 08:47:13;;;;;;;14.88;5.72;;;;;;;;;;4911098;29;20028;-61
2021/10/07 08:49:42;;;;;;;18.55;5.43;;;;;;;;;;4912262;29;20127;-62
2021/10/07 08:52:09;;;;;;;17.73;6.00;;;;;;;;;;4913338;29;20495;-61
2021/10/07 08:54:36;;;;;;;18.60;5.70;;;;;;;;;;4915839;29;20036;-61
2021/10/07 08:57:03;;;;;;;17.77;5.70;;;;;;;;;;4916007;29;20060;-61
2021/10/07 08:59:29;;;;;;;19.23;6.50;;;;;;;;;;4917206;29;20024;-61
2021/10/07 09:01:57;;;;;;;18.08;5.78;;;;;;;;;;4916112;29;20039;-61
2021/10/07 09:04:27;;;;;;;23.58;6.38;;;;;;;;;;4917199;29;20020;-63
2021/10/07 09:07:07;;;;;;;24.90;6.95;;;;;;;;;;4917427;29;20403;-63
2021/10/07 09:09:34;;;;;;;18.60;6.20;;;;;;;;;;4917348;29;20036;-61
2021/10/07 09:12:07;;;;;;;25.27;5.95;;;;;;;;;;4917625;29;20055;-61
2021/10/07 09:14:40;;;;;;;18.40;6.60;;;;;;;;;;4915704;29;20024;-61
2021/10/07 09:17:08;;;;;;;21.40;6.53;;;;;;;;;;4915888;29;20099;-62
2021/10/07 09:19:40;;;;;;;16.52;5.85;;;;;;;;;;4917078;29;20091;-63
2021/10/07 09:22:16;;;;;;;15.50;5.35;;;;;;;;;;4916850;29;20079;-63
2021/10/07 09:24:44;;;;;;;20.48;6.00;;;;;;;;;;4916861;29;20024;-61
2021/10/07 09:27:13;;;;;;;21.40;6.07;;;;;;;;;;4916870;29;20032;-62
2021/10/07 09:29:39;;;;;;;20.17;5.30;;;;;;;;;;4917132;29;20040;-62
2021/10/07 09:32:06;;;;;;;23.55;5.15;;;;;;;;;;4916279;29;20112;-62
2021/10/07 09:34:40;;;;;;;16.77;5.35;;;;;;;;;;4916016;29;20107;-63
2021/10/07 09:37:19;;;;;;;19.00;5.18;;;;;;;;;;4917056;29;20627;-62
2021/10/07 09:39:49;;;;;;;24.55;5.68;;;;;;;;;;4916860;29;20103;-62
2021/10/07 09:42:17;;;;;;;23.52;4.88;;;;;;;;;;4916874;29;20028;-62
2021/10/07 09:45:07;;;;;;;17.05;4.60;;;;;;;;;;4915376;29;20394;-65
2021/10/07 09:47:41;;;;;;;16.30;4.60;;;;;;;;;;4915496;29;20483;-62
2021/10/07 09:50:25;;;;;;;20.88;4.75;;;;;;;;;;4915198;29;20036;-62
2021/10/07 09:52:53;;;;;;;21.38;4.60;;;;;;;;;;4914283;29;20036;-61
2021/10/07 09:55:23;;;;;;;16.38;4.75;;;;;;;;;;4914480;29;20024;-62
2021/10/07 09:57:50;;;;;;;18.85;4.88;;;;;;;;;;4914290;29;20060;-63
2021/10/07 10:00:16;;;;;;;14.68;5.10;;;;;;;;;;4915201;29;20115;-60
2021/10/07 10:02:43;;;;;;;16.08;4.80;;;;;;;;;;4913588;29;20117;-61
2021/10/07 10:05:10;;;;;;;21.35;5.20;;;;;;;;;;4915090;29;20040;-60
2021/10/07 10:07:36;;;;;;;20.05;6.25;;;;;;;;;;4916439;29;20020;-62
2021/10/07 10:10:06;;;;;;;14.60;4.05;;;;;;;;;;4914955;29;20040;-62
2021/10/07 10:12:32;;;;;;;23.38;4.40;;;;;;;;;;4915559;29;20063;-61
2021/10/07 10:14:59;;;;;;;21.02;4.00;;;;;;;;;;4914944;29;20377;-61
2021/10/07 10:17:27;;;;;;;13.75;4.05;;;;;;;;;;4913349;29;20542;-61
2021/10/07 10:19:54;;;;;;;16.33;4.30;;;;;;;;;;4913874;29;20048;-61
2021/10/07 10:22:25;;;;;;;11.13;3.55;;;;;;;;;;4911141;29;20032;-61
2021/10/07 10:24:51;;;;;;;12.82;3.53;;;;;;;;;;4913684;29;20103;-61
2021/10/07 10:27:18;;;;;;;16.27;3.53;;;;;;;;;;4913668;29;20028;-63
2021/10/07 10:29:44;;;;;;;19.60;4.05;;;;;;;;;;4913674;29;20036;-62
2021/10/07 10:32:13;;;;;;;19.27;3.90;;;;;;;;;;4914800;29;20028;-64
2021/10/07 10:34:41;;;;;;;23.48;4.13;;;;;;;;;;4910876;29;20061;-60
2021/10/07 10:37:08;;;;;;;18.33;3.20;;;;;;;;;;4913077;29;20028;-62
2021/10/07 10:39:37;;;;;;;21.50;3.53;;;;;;;;;;4912707;29;20559;-63
2021/10/07 10:42:06;;;;;;;12.65;3.22;;;;;;;;;;4913598;29;20173;-64
2021/10/07 10:44:51;;;;;;;15.20;3.60;;;;;;;;;;4912867;29;20091;-63
2021/10/07 10:47:19;;;;;;;21.40;4.07;;;;;;;;;;4913261;29;20058;-62
2021/10/07 10:49:51;;;;;;;15.07;3.55;;;;;;;;;;4913670;29;20506;-63
2021/10/07 10:52:20;;;;;;;17.10;3.60;;;;;;;;;;4913758;29;20038;-62
2021/10/07 10:54:50;;;;;;;22.85;4.68;;;;;;;;;;4911328;29;20100;-62
2021/10/07 10:57:30;;;;;;;16.77;3.38;;;;;;;;;;4913640;29;20051;-65
2021/10/07 11:00:15;;;;;;;14.30;2.70;;;;;;;;;;4911343;29;20551;-62
2021/10/07 11:02:42;;;;;;;17.65;3.50;;;;;;;;;;4914941;29;20078;-63
2021/10/07 11:05:20;;;;;;;13.35;3.13;;;;;;;;;;4915247;29;20039;-63
2021/10/07 11:07:47;;;;;;;16.55;3.25;;;;;;;;;;4914117;29;20028;-63
2021/10/07 11:10:27;;;;;;;16.15;3.67;;;;;;;;;;4914288;29;20522;-63
2021/10/07 11:12:55;;;;;;;18.30;3.47;;;;;;;;;;4911685;29;20020;-60
2021/10/07 11:15:23;;;;;;;14.50;3.20;;;;;;;;;;4913350;29;20111;-60
2021/10/07 11:17:49;;;;;;;15.50;3.28;;;;;;;;;;4913484;29;20072;-63
2021/10/07 11:20:20;;;;;;;19.13;3.55;;;;;;;;;;4913792;29;20028;-64
2021/10/07 11:22:59;;;;;;;19.25;3.53;;;;;;;;;;4901561;29;20040;-65
2021/10/07 11:25:25;;;;;;;23.52;3.45;;;;;;;;;;4913685;29;20125;-64
2021/10/07 11:27:51;;;;;;;17.15;3.25;;;;;;;;;;4913638;29;20099;-64
2021/10/07 11:30:19;;;;;;;15.65;3.10;;;;;;;;;;4916365;29;20040;-65
2021/10/07 11:32:45;;;;;;;19.48;2.85;;;;;;;;;;4924389;29;20055;-63
2021/10/07 11:35:12;;;;;;;17.10;3.22;;;;;;;;;;4932989;29;20079;-63
2021/10/07 11:37:54;;;;;;;15.80;3.05;;;;;;;;;;4933309;29;20071;-64
2021/10/07 11:40:32;;;;;;;19.95;3.70;;;;;;;;;;4932998;29;20504;-64
2021/10/07 11:43:04;;;;;;;17.17;3.30;;;;;;;;;;4932576;29;20154;-63
2021/10/07 11:45:34;;;;;;;17.08;3.20;;;;;;;;;;4932835;29;20036;-63
2021/10/07 11:48:04;;;;;;;26.17;3.35;;;;;;;;;;4933588;29;20038;-63
2021/10/07 11:50:30;;;;;;;23.25;3.35;;;;;;;;;;4917100;29;20040;-63
2021/10/07 11:52:56;;;;;;;17.90;2.97;;;;;;;;;;4914311;29;20371;-62
2021/10/07 11:55:23;;;;;;;15.57;3.50;;;;;;;;;;4901431;29;20072;-62
2021/10/07 11:57:56;;;;;;;17.80;3.25;;;;;;;;;;4913404;29;20047;-62
2021/10/07 12:00:52;;;;;;;20.98;3.15;;;;;;;;;;4914206;29;20055;-63
2021/10/07 12:03:20;;;;;;;19.17;3.40;;;;;;;;;;4827434;29;20535;-62
2021/10/07 12:05:50;;;;;;;18.20;3.72;;;;;;;;;;4825320;29;20026;-62
2021/10/07 12:08:17;;;;;;;16.67;2.95;;;;;;;;;;4823871;29;20504;-62
2021/10/07 12:10:45;;;;;;;13.15;2.78;;;;;;;;;;4823414;29;20072;-62
2021/10/07 12:13:18;;;;;;;19.75;3.33;;;;;;;;;;4819137;29;20043;-62
2021/10/07 12:15:46;;;;;;;18.35;3.17;;;;;;;;;;4818724;29;20135;-62
2021/10/07 12:18:13;;;;;;;22.45;4.32;;;;;;;;;;4819324;29;20538;-61
2021/10/07 12:20:39;;;;;;;13.35;2.65;;;;;;;;;;4819464;29;20480;-62
2021/10/07 12:23:06;;;;;;;18.48;2.90;;;;;;;;;;4819345;29;20235;-63
2021/10/07 12:25:40;;;;;;;16.25;3.65;;;;;;;;;;4818815;29;20042;-62
2021/10/07 12:28:06;;;;;;;19.40;2.65;;;;;;;;;;4817434;29;20483;-62
2021/10/07 12:30:32;;;;;;;22.65;3.25;;;;;;;;;;4819125;29;20046;-62
2021/10/07 12:33:13;;;;;;;15.15;3.15;;;;;;;;;;4819573;29;20100;-63
2021/10/07 12:35:53;;;;;;;16.90;2.90;;;;;;;;;;4819569;29;20156;-63
2021/10/07 12:38:19;;;;;;;14.70;2.75;;;;;;;;;;4819152;29;20869;-62
2021/10/07 12:40:51;;;;;;;12.13;2.47;;;;;;;;;;4891130;29;20049;-64
2021/10/07 12:43:17;;;;;;;21.65;2.90;;;;;;;;;;4895224;29;20017;-63
2021/10/07 12:46:01;;;;;;;13.63;2.92;;;;;;;;;;4894899;29;20472;-62
2021/10/07 12:48:40;;;;;;;12.68;2.60;;;;;;;;;;4895203;29;20041;-62
2021/10/07 12:51:10;;;;;;;14.77;3.15;;;;;;;;;;4895353;29;20497;-63
2021/10/07 12:53:37;;;;;;;14.43;2.70;;;;;;;;;;4895171;29;20092;-62
2021/10/07 12:56:14;;;;;;;18.73;3.20;;;;;;;;;;4895297;29;20028;-62
2021/10/07 12:58:47;;;;;;;15.98;3.17;;;;;;;;;;4894856;29;20108;-61
2021/10/07 13:01:14;;;;;;;18.00;3.05;;;;;;;;;;4894709;29;20028;-63
2021/10/07 13:03:40;;;;;;;13.13;3.05;;;;;;;;;;4894972;29;20029;-62
2021/10/07 13:06:09;;;;;;;11.35;3.15;;;;;;;;;;4894919;29;20036;-63
2021/10/07 13:08:35;;;;;;;14.73;3.20;;;;;;;;;;4894314;29;20356;-61
2021/10/07 13:11:01;;;;;;;22.23;4.32;;;;;;;;;;4895027;29;20088;-63
2021/10/07 13:13:30;;;;;;;14.77;3.17;;;;;;;;;;4894550;29;20576;-61
2021/10/07 13:15:56;;;;;;;17.23;3.80;;;;;;;;;;4894619;29;20040;-64
2021/10/07 13:18:22;;;;;;;18.58;4.22;;;;;;;;;;4894264;29;20060;-64
2021/10/07 13:20:48;;;;;;;18.00;3.20;;;;;;;;;;4894911;29;20076;-63
2021/10/07 13:23:14;;;;;;;20.40;3.65;;;;;;;;;;4894730;29;20025;-63
2021/10/07 13:25:43;;;;;;;19.05;4.30;;;;;;;;;;4895083;29;20057;-63
2021/10/07 13:28:09;;;;;;;15.55;3.15;;;;;;;;;;4894738;29;20437;-63
2021/10/07 13:30:35;;;;;;;17.35;3.90;;;;;;;;;;4894423;29;20032;-62
2021/10/07 13:33:01;;;;;;;15.95;3.33;;;;;;;;;;4894961;29;20546;-63
2021/10/07 13:35:28;;;;;;;12.00;4.00;;;;;;;;;;4894446;29;20089;-62
2021/10/07 13:37:55;;;;;;;15.13;4.00;;;;;;;;;;4894277;29;20144;-63
2021/10/07 13:40:22;;;;;;;19.92;3.60;;;;;;;;;;4898093;29;20032;-63
2021/10/07 13:42:48;;;;;;;17.13;3.95;;;;;;;;;;4898210;29;20028;-62
2021/10/07 13:45:18;;;;;;;16.80;4.10;;;;;;;;;;4897699;29;20028;-64
2021/10/07 13:47:48;;;;;;;11.18;3.90;;;;;;;;;;4897484;29;20040;-62
2021/10/07 13:50:14;;;;;;;15.20;3.75;;;;;;;;;;4880718;29;20626;-63
2021/10/07 13:52:40;;;;;;;12.75;3.53;;;;;;;;;;4897965;29;20039;-63
2021/10/07 13:55:06;;;;;;;16.50;3.90;;;;;;;;;;4898336;29;20037;-63
2021/10/07 13:57:33;;;;;;;13.73;3.60;;;;;;;;;;4897857;29;20033;-62
2021/10/07 13:59:59;;;;;;;15.80;4.13;;;;;;;;;;4901612;29;20401;-62
2021/10/07 14:02:25;;;;;;;10.30;2.90;;;;;;;;;;4915441;29;20384;-62
2021/10/07 14:04:51;;;;;;;16.55;3.40;;;;;;;;;;4915646;29;20481;-62
2021/10/07 14:07:17;;;;;;;11.27;3.40;;;;;;;;;;4915140;29;20132;-61
2021/10/07 14:09:44;;;;;;;18.98;4.05;;;;;;;;;;4915522;29;20095;-62
2021/10/07 14:12:10;;;;;;;12.27;3.42;;;;;;;;;;4915125;29;20028;-62
2021/10/07 14:14:36;;;;;;;11.88;3.95;;;;;;;;;;4915242;29;20024;-63
2021/10/07 14:17:02;;;;;;;13.10;4.72;;;;;;;;;;4915091;29;20055;-63
2021/10/07 14:19:30;;;;;;;15.75;5.22;;;;;;;;;;4912334;29;20044;-63
2021/10/07 14:21:56;;;;;;;17.02;4.82;;;;;;;;;;4915150;29;20016;-63
2021/10/07 14:24:22;;;;;;;10.30;3.67;;;;;;;;;;4915218;29;20083;-63
2021/10/07 14:26:48;;;;;;;12.65;3.72;;;;;;;;;;4912414;29;20028;-64
2021/10/07 14:29:14;;;;;;;9.65;3.28;;;;;;;;;;4914670;29;20024;-64
2021/10/07 14:31:40;;;;;;;14.82;3.72;;;;;;;;;;4915046;29;20079;-62
2021/10/07 14:34:07;;;;;;;14.80;3.78;;;;;;;;;;4914763;29;20016;-62
2021/10/07 14:36:34;;;;;;;10.65;4.00;;;;;;;;;;4915194;29;20024;-62